AirNav   Air Wisconsin Up To $57,000 Bonus
 
 996 users online  

II77 Finney's Airpark
Albany, Indiana, USA

GOING TO ALBANY?


FAA INFORMATION EFFECTIVE 07 NOVEMBER 2019

Location

FAA Identifier: II77
Lat/Long: 40-15-34.1530N 085-15-37.8920W
40-15.569217N 085-15.631533W
40.2594869,-85.2605256
(estimated)
Elevation: 965 ft. / 294 m (estimated)
Variation: 03W (1990)
From city: 3 miles SW of ALBANY, IN
Time zone: UTC -5 (UTC -4 during Daylight Saving Time)
Zip code: 47320

Airport Operations

Airport use: Private use. Permission required prior to landing
Activation date: 08/1994
Control tower: no
ARTCC: INDIANAPOLIS CENTER
FSS: TERRE HAUTE FLIGHT SERVICE STATION
Attendance: IREG
Segmented circle: no

Airport Communications

WX ASOS at MIE (6 nm W): 114.4 (765-288-9617)
WX AWOS-3 at PLD (17 nm NE): 124.675 (260-726-7882)
WX AWOS-3 at AID (19 nm SW): 128.55 (765-442-1245)

Nearby radio navigation aids

VOR radial/distance  VOR name  Freq  Var
MIEr081/6.3MUNCIE VOR/DME114.4003W
MZZr129/23.7MARION VOR/DME108.6003W
OKKr119/39.8KOKOMO VORTAC113.5005W

 
NDB name  Hdg/Dist  Freq  Var  ID
BALLL033/5.536503WJN .--- -.
NEW CASTLE013/22.938506WUWL ..- .-- .-..

Airport Services

Runway Information

Runway 9/27

Dimensions: 1900 x 100 ft. / 579 x 30 m
Surface: turf
RUNWAY 9  RUNWAY 27
Traffic pattern: leftleft
Obstructions: 25 ft. pline, 800 ft. from runway25 ft. pline, 1300 ft. from runway

Airport Ownership and Management from official FAA records

Ownership: Privately-owned
Owner: MICHAEL E. FINNEY
7600 N COUNTY ROAD 650E
ALBANY, IN 47320
Phone 765-789-6789
Manager: MICHAEL E. FINNEY
7600 N COUNTY ROAD 650E
ALBANY, IN 47320
Phone 765-789-6789

Airport Operational Statistics

Aircraft based on the field: 3
Single engine airplanes: 3
    

Additional Remarks

FOR CD CTC INDIANAPOLIS APCH AT 317-227-5743.

Instrument Procedures

There are no published instrument procedures at II77.

Some nearby airports with instrument procedures:

KMIE - Delaware County Regional Airport (6 nm W)
I22 - Randolph County Airport (16 nm E)
KPLD - Portland Municipal Airport (17 nm NE)
KAID - Anderson Municipal Airport-Darlington Field (19 nm SW)
KUWL - New Castle Henry County Airport / Marlatt Field (23 nm S)
 
Loc | Ops | Rwys | IFR | FBO | Links
Com | Nav | Svcs | Stats | Notes
Area around II77 (Finney's Airpark)
 
Road maps at: MapQuest Bing Google
 
Aerial photo
WARNING: Photo may not be current or correct
Aerial photo of II77 (Finney's Airpark)
Do you have a better or more recent aerial photo of Finney's Airpark that you would like to share? If so, please send us your photo.

 
Sectional chart

 
Airport distance calculator
Flying to Finney's Airpark? Find the distance to fly.

From to II77

Sunrise and sunset
Times for 21-Nov-2019
 Local
(UTC-5)
 Zulu
(UTC)
Morning civil twilight07:0512:05
Sunrise07:3512:35
Sunset17:1922:19
Evening civil twilight17:4922:49

Current date and time
Zulu (UTC)  22-Nov-2019 02:19:47
Local (UTC-5)  21-Nov-2019 21:19:47
 
METAR
KMIE 
7nm W 
220153Z 28014G21KT 7SM -RA OVC008 12/10 A2992 RMK AO2 CIG 006V011 SLP128 P0000 T01220100
KPLD 
17nm NE 
220155Z AUTO 28018G23KT 2 1/2SM BR OVC007 11/10 A2990 RMK AO2 P0002
KAID 
18nm SW 
220155Z AUTO 29011G16KT 7SM DZ OVC006 11/10 A2994 RMK AO2 P0001 T01090100
TAF
KFWA 
43nm N 
211849Z 2119/2218 20018G30KT P6SM -SHRA OVC025 WS020/22050KT FM211930 21017G29KT 4SM -DZ BR OVC015 WS020/23050KT TEMPO 2120/2124 2SM -DZ BR OVC009 FM220000 24017G27KT P6SM VCSH OVC012 FM220300 27013G20KT P6SM OVC015 FM220600 30012KT P6SM BKN020
KGUS 
46nm NW 
212330Z 2123/2301 27010G15KT 9999 OVC015 QNH2984INS TEMPO 2123/2203 27015G25KT BECMG 2202/2203 28015G20KT 8000 -SHRA OVC015 QNH2996INS BECMG 2204/2205 30015KT 9999 NSW BKN020 QNH2997INS BECMG 2212/2213 31010KT 9999 SCT050 QNH3012INS BECMG 2218/2219 VRB06KT 9999 SKC QNH3012INS TX12/2123Z TN02/2212Z
NOTAMs
Click for the latest NOTAMs
NOTAMs are issued by the DoD/FAA and will open in a separate window not controlled by AirNav.

 

 
 

Would you like to see your business listed on this page?

 If your business provides an interesting product or service to pilots, flight crews, aircraft, or users of the Finney's Airpark, you should consider listing it here.  To start the listing process, click on the button below
 
Add a business
 

Other Pages about Finney's Airpark

Update a link
 
Copyright © AirNav, LLC. All rights reserved. Privacy Policy  Contact